sensor_id;sensor_type;location;lat;lon;timestamp;P1;durP1;ratioP1;P2;durP2;ratioP2
44452;SDS011;30155;52.164;21.236;2022-11-06T00:04:30;27.85;;;21.00;;
44452;SDS011;30155;52.164;21.236;2022-11-06T00:09:21;32.17;;;22.90;;
44452;SDS011;30155;52.164;21.236;2022-11-06T00:19:29;26.17;;;19.48;;
44452;SDS011;30155;52.164;21.236;2022-11-06T00:24:20;22.37;;;18.75;;
44452;SDS011;30155;52.164;21.236;2022-11-06T00:29:12;27.05;;;18.48;;
44452;SDS011;30155;52.164;21.236;2022-11-06T00:34:05;26.35;;;19.50;;
44452;SDS011;30155;52.164;21.236;2022-11-06T00:38:57;30.15;;;19.30;;
44452;SDS011;30155;52.164;21.236;2022-11-06T00:43:49;25.50;;;17.98;;
44452;SDS011;30155;52.164;21.236;2022-11-06T00:48:47;24.43;;;17.15;;
44452;SDS011;30155;52.164;21.236;2022-11-06T00:53:39;24.45;;;17.30;;
44452;SDS011;30155;52.164;21.236;2022-11-06T00:58:32;27.50;;;18.98;;
44452;SDS011;30155;52.164;21.236;2022-11-06T01:03:23;24.50;;;18.87;;
44452;SDS011;30155;52.164;21.236;2022-11-06T01:08:14;25.65;;;19.35;;
44452;SDS011;30155;52.164;21.236;2022-11-06T01:13:06;27.45;;;19.67;;
44452;SDS011;30155;52.164;21.236;2022-11-06T01:17:57;28.45;;;19.32;;
44452;SDS011;30155;52.164;21.236;2022-11-06T01:22:48;26.20;;;20.17;;
44452;SDS011;30155;52.164;21.236;2022-11-06T01:27:39;41.85;;;21.07;;
44452;SDS011;30155;52.164;21.236;2022-11-06T01:32:31;29.10;;;19.50;;
44452;SDS011;30155;52.164;21.236;2022-11-06T01:37:24;28.27;;;19.95;;
44452;SDS011;30155;52.164;21.236;2022-11-06T01:42:19;29.60;;;20.60;;
44452;SDS011;30155;52.164;21.236;2022-11-06T01:47:27;35.15;;;21.48;;
44452;SDS011;30155;52.164;21.236;2022-11-06T01:52:19;28.32;;;18.90;;
44452;SDS011;30155;52.164;21.236;2022-11-06T01:57:13;31.48;;;21.50;;
44452;SDS011;30155;52.164;21.236;2022-11-06T02:02:04;28.27;;;20.92;;
44452;SDS011;30155;52.164;21.236;2022-11-06T02:06:56;32.48;;;20.80;;
44452;SDS011;30155;52.164;21.236;2022-11-06T02:11:51;33.08;;;21.05;;
44452;SDS011;30155;52.164;21.236;2022-11-06T02:26:58;30.85;;;15.83;;
44452;SDS011;30155;52.164;21.236;2022-11-06T02:32:03;24.72;;;19.05;;
44452;SDS011;30155;52.164;21.236;2022-11-06T02:37:02;24.87;;;19.17;;
44452;SDS011;30155;52.164;21.236;2022-11-06T02:41:57;27.55;;;18.48;;
44452;SDS011;30155;52.164;21.236;2022-11-06T02:46:57;27.30;;;19.35;;
44452;SDS011;30155;52.164;21.236;2022-11-06T02:51:56;25.32;;;18.15;;
44452;SDS011;30155;52.164;21.236;2022-11-06T02:56:52;23.40;;;17.50;;
44452;SDS011;30155;52.164;21.236;2022-11-06T03:01:52;21.15;;;17.20;;
44452;SDS011;30155;52.164;21.236;2022-11-06T03:06:56;22.20;;;15.63;;
44452;SDS011;30155;52.164;21.236;2022-11-06T03:11:53;23.70;;;16.05;;
44452;SDS011;30155;52.164;21.236;2022-11-06T03:17:00;23.95;;;14.90;;
44452;SDS011;30155;52.164;21.236;2022-11-06T03:27:06;19.30;;;12.73;;
44452;SDS011;30155;52.164;21.236;2022-11-06T03:32:16;25.57;;;14.25;;
44452;SDS011;30155;52.164;21.236;2022-11-06T03:37:39;26.23;;;13.48;;
44452;SDS011;30155;52.164;21.236;2022-11-06T03:42:21;20.80;;;13.40;;
44452;SDS011;30155;52.164;21.236;2022-11-06T03:47:21;18.23;;;13.60;;
44452;SDS011;30155;52.164;21.236;2022-11-06T03:52:36;19.95;;;13.32;;
44452;SDS011;30155;52.164;21.236;2022-11-06T04:02:37;18.75;;;13.10;;
44452;SDS011;30155;52.164;21.236;2022-11-06T04:07:33;17.92;;;12.58;;
44452;SDS011;30155;52.164;21.236;2022-11-06T04:12:27;16.30;;;12.65;;
44452;SDS011;30155;52.164;21.236;2022-11-06T04:17:39;17.42;;;12.33;;
44452;SDS011;30155;52.164;21.236;2022-11-06T04:43:44;14.00;;;10.15;;
44452;SDS011;30155;52.164;21.236;2022-11-06T04:48:39;9.70;;;7.65;;
44452;SDS011;30155;52.164;21.236;2022-11-06T04:53:31;14.95;;;8.75;;
44452;SDS011;30155;52.164;21.236;2022-11-06T04:58:24;12.43;;;8.48;;
44452;SDS011;30155;52.164;21.236;2022-11-06T05:03:15;10.53;;;8.40;;
44452;SDS011;30155;52.164;21.236;2022-11-06T05:08:11;14.13;;;8.88;;
44452;SDS011;30155;52.164;21.236;2022-11-06T05:13:05;11.68;;;8.13;;
44452;SDS011;30155;52.164;21.236;2022-11-06T05:17:56;11.03;;;8.40;;
44452;SDS011;30155;52.164;21.236;2022-11-06T05:22:48;11.50;;;8.48;;
44452;SDS011;30155;52.164;21.236;2022-11-06T05:27:50;9.95;;;7.15;;
44452;SDS011;30155;52.164;21.236;2022-11-06T05:32:41;9.50;;;7.35;;
44452;SDS011;30155;52.164;21.236;2022-11-06T05:37:32;9.38;;;7.47;;
44452;SDS011;30155;52.164;21.236;2022-11-06T05:42:24;15.75;;;8.83;;
44452;SDS011;30155;52.164;21.236;2022-11-06T05:47:15;10.63;;;8.30;;
44452;SDS011;30155;52.164;21.236;2022-11-06T05:52:06;12.23;;;9.45;;
44452;SDS011;30155;52.164;21.236;2022-11-06T05:56:58;11.53;;;8.18;;
44452;SDS011;30155;52.164;21.236;2022-11-06T06:01:49;15.10;;;8.30;;
44452;SDS011;30155;52.164;21.236;2022-11-06T06:06:40;11.75;;;8.83;;
44452;SDS011;30155;52.164;21.236;2022-11-06T06:11:32;19.82;;;12.70;;
44452;SDS011;30155;52.164;21.236;2022-11-06T06:16:23;53.50;;;13.78;;
44452;SDS011;30155;52.164;21.236;2022-11-06T06:21:15;27.87;;;11.43;;
44452;SDS011;30155;52.164;21.236;2022-11-06T06:26:06;53.42;;;13.80;;
44452;SDS011;30155;52.164;21.236;2022-11-06T06:30:58;55.63;;;14.83;;
44452;SDS011;30155;52.164;21.236;2022-11-06T06:35:55;37.50;;;16.10;;
44452;SDS011;30155;52.164;21.236;2022-11-06T06:40:47;44.08;;;15.65;;
44452;SDS011;30155;52.164;21.236;2022-11-06T06:45:38;25.68;;;13.80;;
44452;SDS011;30155;52.164;21.236;2022-11-06T06:50:30;30.62;;;12.75;;
44452;SDS011;30155;52.164;21.236;2022-11-06T06:55:22;43.92;;;11.03;;
44452;SDS011;30155;52.164;21.236;2022-11-06T07:00:18;22.30;;;11.15;;
44452;SDS011;30155;52.164;21.236;2022-11-06T07:05:07;22.55;;;11.65;;
44452;SDS011;30155;52.164;21.236;2022-11-06T07:09:58;36.15;;;13.60;;
44452;SDS011;30155;52.164;21.236;2022-11-06T07:14:50;29.15;;;11.80;;
44452;SDS011;30155;52.164;21.236;2022-11-06T07:19:41;39.70;;;10.30;;
44452;SDS011;30155;52.164;21.236;2022-11-06T07:24:32;24.35;;;12.25;;
44452;SDS011;30155;52.164;21.236;2022-11-06T07:29:24;21.75;;;12.40;;
44452;SDS011;30155;52.164;21.236;2022-11-06T07:34:17;20.52;;;12.20;;
44452;SDS011;30155;52.164;21.236;2022-11-06T07:39:26;28.67;;;13.35;;
44452;SDS011;30155;52.164;21.236;2022-11-06T07:44:20;22.70;;;12.78;;
44452;SDS011;30155;52.164;21.236;2022-11-06T07:49:31;50.23;;;14.45;;
44452;SDS011;30155;52.164;21.236;2022-11-06T07:54:14;33.58;;;14.13;;
44452;SDS011;30155;52.164;21.236;2022-11-06T07:59:05;27.70;;;12.35;;
44452;SDS011;30155;52.164;21.236;2022-11-06T08:09:22;21.73;;;12.10;;
44452;SDS011;30155;52.164;21.236;2022-11-06T08:14:19;21.23;;;13.18;;
44452;SDS011;30155;52.164;21.236;2022-11-06T08:19:27;18.35;;;13.13;;
44452;SDS011;30155;52.164;21.236;2022-11-06T08:24:26;20.43;;;15.08;;
44452;SDS011;30155;52.164;21.236;2022-11-06T08:29:30;17.45;;;12.55;;
44452;SDS011;30155;52.164;21.236;2022-11-06T08:39:33;17.70;;;10.90;;
44452;SDS011;30155;52.164;21.236;2022-11-06T08:44:38;25.95;;;14.60;;
44452;SDS011;30155;52.164;21.236;2022-11-06T08:49:37;32.25;;;12.15;;
44452;SDS011;30155;52.164;21.236;2022-11-06T08:54:46;32.05;;;12.37;;
44452;SDS011;30155;52.164;21.236;2022-11-06T08:59:39;19.90;;;11.65;;
44452;SDS011;30155;52.164;21.236;2022-11-06T09:04:38;19.07;;;11.75;;
44452;SDS011;30155;52.164;21.236;2022-11-06T09:09:53;24.32;;;12.85;;
44452;SDS011;30155;52.164;21.236;2022-11-06T09:14:45;17.48;;;11.97;;
44452;SDS011;30155;52.164;21.236;2022-11-06T09:19:44;23.38;;;11.63;;
44452;SDS011;30155;52.164;21.236;2022-11-06T09:24:41;19.00;;;14.38;;
44452;SDS011;30155;52.164;21.236;2022-11-06T09:29:40;19.07;;;12.35;;
44452;SDS011;30155;52.164;21.236;2022-11-06T09:34:43;15.72;;;11.93;;
44452;SDS011;30155;52.164;21.236;2022-11-06T09:50:03;18.55;;;13.03;;
44452;SDS011;30155;52.164;21.236;2022-11-06T09:55:15;14.98;;;12.18;;
44452;SDS011;30155;52.164;21.236;2022-11-06T10:00:12;16.80;;;12.03;;
44452;SDS011;30155;52.164;21.236;2022-11-06T10:27:37;14.63;;;11.83;;
44452;SDS011;30155;52.164;21.236;2022-11-06T10:38:15;17.12;;;13.18;;
44452;SDS011;30155;52.164;21.236;2022-11-06T10:48:42;15.58;;;10.85;;
44452;SDS011;30155;52.164;21.236;2022-11-06T10:59:08;16.80;;;11.12;;
44452;SDS011;30155;52.164;21.236;2022-11-06T11:03:59;14.95;;;10.63;;
44452;SDS011;30155;52.164;21.236;2022-11-06T11:08:58;15.30;;;10.90;;
44452;SDS011;30155;52.164;21.236;2022-11-06T11:19:44;14.78;;;11.43;;
44452;SDS011;30155;52.164;21.236;2022-11-06T11:24:27;13.32;;;9.45;;
44452;SDS011;30155;52.164;21.236;2022-11-06T11:29:45;14.13;;;10.72;;
44452;SDS011;30155;52.164;21.236;2022-11-06T11:34:50;11.90;;;10.13;;
44452;SDS011;30155;52.164;21.236;2022-11-06T11:39:43;11.93;;;10.32;;
44452;SDS011;30155;52.164;21.236;2022-11-06T11:44:39;13.88;;;10.60;;
44452;SDS011;30155;52.164;21.236;2022-11-06T11:49:30;12.75;;;9.65;;
44452;SDS011;30155;52.164;21.236;2022-11-06T11:54:24;16.40;;;11.03;;
44452;SDS011;30155;52.164;21.236;2022-11-06T12:04:52;13.25;;;10.48;;
44452;SDS011;30155;52.164;21.236;2022-11-06T12:09:58;13.90;;;10.98;;
44452;SDS011;30155;52.164;21.236;2022-11-06T12:15:06;13.43;;;11.93;;
44452;SDS011;30155;52.164;21.236;2022-11-06T12:25:57;16.07;;;11.63;;
44452;SDS011;30155;52.164;21.236;2022-11-06T12:31:08;14.40;;;10.58;;
44452;SDS011;30155;52.164;21.236;2022-11-06T12:35:59;18.77;;;13.35;;
44452;SDS011;30155;52.164;21.236;2022-11-06T12:40:56;17.48;;;12.75;;
44452;SDS011;30155;52.164;21.236;2022-11-06T13:02:27;16.57;;;10.65;;
44452;SDS011;30155;52.164;21.236;2022-11-06T13:24:00;16.60;;;9.63;;
44452;SDS011;30155;52.164;21.236;2022-11-06T13:28:58;15.58;;;10.80;;
44452;SDS011;30155;52.164;21.236;2022-11-06T13:33:57;13.00;;;9.50;;
44452;SDS011;30155;52.164;21.236;2022-11-06T13:38:51;14.07;;;9.35;;
44452;SDS011;30155;52.164;21.236;2022-11-06T13:44:02;12.63;;;9.93;;
44452;SDS011;30155;52.164;21.236;2022-11-06T14:10:34;16.45;;;8.35;;
44452;SDS011;30155;52.164;21.236;2022-11-06T14:15:35;12.40;;;8.75;;
44452;SDS011;30155;52.164;21.236;2022-11-06T14:31:01;8.78;;;7.70;;
44452;SDS011;30155;52.164;21.236;2022-11-06T14:35:53;7.65;;;6.00;;
44452;SDS011;30155;52.164;21.236;2022-11-06T14:40:51;8.93;;;6.22;;
44452;SDS011;30155;52.164;21.236;2022-11-06T14:46:03;7.92;;;7.10;;
44452;SDS011;30155;52.164;21.236;2022-11-06T14:50:58;9.93;;;7.78;;
44452;SDS011;30155;52.164;21.236;2022-11-06T14:56:01;13.65;;;8.75;;
44452;SDS011;30155;52.164;21.236;2022-11-06T15:00:56;13.32;;;9.15;;
44452;SDS011;30155;52.164;21.236;2022-11-06T15:05:55;90.70;;;48.52;;
44452;SDS011;30155;52.164;21.236;2022-11-06T15:10:51;87.88;;;43.65;;
44452;SDS011;30155;52.164;21.236;2022-11-06T15:15:44;50.30;;;26.50;;
44452;SDS011;30155;52.164;21.236;2022-11-06T15:20:39;89.67;;;50.75;;
44452;SDS011;30155;52.164;21.236;2022-11-06T15:31:15;149.35;;;81.75;;
44452;SDS011;30155;52.164;21.236;2022-11-06T15:41:22;167.90;;;92.27;;
44452;SDS011;30155;52.164;21.236;2022-11-06T15:46:17;145.00;;;78.78;;
44452;SDS011;30155;52.164;21.236;2022-11-06T15:51:23;128.57;;;64.87;;
44452;SDS011;30155;52.164;21.236;2022-11-06T15:56:25;118.25;;;64.40;;
44452;SDS011;30155;52.164;21.236;2022-11-06T16:06:49;88.60;;;50.33;;
44452;SDS011;30155;52.164;21.236;2022-11-06T16:11:53;81.97;;;48.40;;
44452;SDS011;30155;52.164;21.236;2022-11-06T16:16:47;86.20;;;49.38;;
44452;SDS011;30155;52.164;21.236;2022-11-06T16:21:54;67.37;;;42.55;;
44452;SDS011;30155;52.164;21.236;2022-11-06T16:27:11;54.88;;;32.90;;
44452;SDS011;30155;52.164;21.236;2022-11-06T16:32:16;54.50;;;32.67;;
44452;SDS011;30155;52.164;21.236;2022-11-06T16:47:22;47.15;;;29.25;;
44452;SDS011;30155;52.164;21.236;2022-11-06T16:57:34;29.50;;;16.77;;
44452;SDS011;30155;52.164;21.236;2022-11-06T17:02:34;36.13;;;22.82;;
44452;SDS011;30155;52.164;21.236;2022-11-06T17:07:31;49.23;;;31.57;;
44452;SDS011;30155;52.164;21.236;2022-11-06T17:12:22;40.90;;;26.87;;
44452;SDS011;30155;52.164;21.236;2022-11-06T17:17:23;27.82;;;19.90;;
44452;SDS011;30155;52.164;21.236;2022-11-06T17:22:16;23.20;;;16.37;;
44452;SDS011;30155;52.164;21.236;2022-11-06T17:27:07;20.15;;;15.58;;
44452;SDS011;30155;52.164;21.236;2022-11-06T17:31:59;19.07;;;14.53;;
44452;SDS011;30155;52.164;21.236;2022-11-06T17:36:50;17.92;;;15.65;;
44452;SDS011;30155;52.164;21.236;2022-11-06T17:41:42;25.25;;;16.97;;
44452;SDS011;30155;52.164;21.236;2022-11-06T17:46:45;19.55;;;15.05;;
44452;SDS011;30155;52.164;21.236;2022-11-06T17:51:56;24.60;;;16.60;;
44452;SDS011;30155;52.164;21.236;2022-11-06T17:56:53;21.27;;;18.32;;
44452;SDS011;30155;52.164;21.236;2022-11-06T18:01:45;35.10;;;25.10;;
44452;SDS011;30155;52.164;21.236;2022-11-06T18:06:47;50.48;;;30.88;;
44452;SDS011;30155;52.164;21.236;2022-11-06T18:12:04;41.40;;;29.50;;
44452;SDS011;30155;52.164;21.236;2022-11-06T18:16:56;44.55;;;31.02;;
44452;SDS011;30155;52.164;21.236;2022-11-06T18:21:47;47.62;;;30.17;;
44452;SDS011;30155;52.164;21.236;2022-11-06T18:26:38;45.50;;;30.57;;
44452;SDS011;30155;52.164;21.236;2022-11-06T18:31:30;47.30;;;32.08;;
44452;SDS011;30155;52.164;21.236;2022-11-06T18:36:22;35.43;;;25.65;;
44452;SDS011;30155;52.164;21.236;2022-11-06T18:41:17;30.15;;;20.90;;
44452;SDS011;30155;52.164;21.236;2022-11-06T18:46:12;31.70;;;24.15;;
44452;SDS011;30155;52.164;21.236;2022-11-06T18:51:06;30.85;;;23.70;;
44452;SDS011;30155;52.164;21.236;2022-11-06T18:56:09;27.22;;;20.85;;
44452;SDS011;30155;52.164;21.236;2022-11-06T19:06:06;34.48;;;22.80;;
44452;SDS011;30155;52.164;21.236;2022-11-06T19:11:00;42.03;;;31.50;;
44452;SDS011;30155;52.164;21.236;2022-11-06T19:15:57;41.37;;;29.92;;
44452;SDS011;30155;52.164;21.236;2022-11-06T19:20:49;50.98;;;36.23;;
44452;SDS011;30155;52.164;21.236;2022-11-06T19:25:40;50.78;;;35.68;;
44452;SDS011;30155;52.164;21.236;2022-11-06T19:30:32;38.28;;;28.77;;
44452;SDS011;30155;52.164;21.236;2022-11-06T19:35:23;33.70;;;24.95;;
44452;SDS011;30155;52.164;21.236;2022-11-06T19:40:15;37.83;;;28.30;;
44452;SDS011;30155;52.164;21.236;2022-11-06T19:45:07;38.58;;;27.32;;
44452;SDS011;30155;52.164;21.236;2022-11-06T19:49:58;40.35;;;28.45;;
44452;SDS011;30155;52.164;21.236;2022-11-06T19:54:51;48.98;;;31.82;;
44452;SDS011;30155;52.164;21.236;2022-11-06T19:59:42;48.38;;;33.80;;
44452;SDS011;30155;52.164;21.236;2022-11-06T20:04:36;40.45;;;28.50;;
44452;SDS011;30155;52.164;21.236;2022-11-06T20:09:28;52.78;;;30.35;;
44452;SDS011;30155;52.164;21.236;2022-11-06T20:14:19;43.80;;;28.65;;
44452;SDS011;30155;52.164;21.236;2022-11-06T20:19:13;34.48;;;24.15;;
44452;SDS011;30155;52.164;21.236;2022-11-06T20:24:05;34.78;;;23.87;;
44452;SDS011;30155;52.164;21.236;2022-11-06T20:28:59;31.23;;;23.80;;
44452;SDS011;30155;52.164;21.236;2022-11-06T20:33:50;31.52;;;22.70;;
44452;SDS011;30155;52.164;21.236;2022-11-06T20:38:42;36.45;;;23.35;;
44452;SDS011;30155;52.164;21.236;2022-11-06T20:43:34;39.05;;;25.15;;
44452;SDS011;30155;52.164;21.236;2022-11-06T20:48:26;37.25;;;27.37;;
44452;SDS011;30155;52.164;21.236;2022-11-06T20:53:18;32.58;;;24.92;;
44452;SDS011;30155;52.164;21.236;2022-11-06T20:58:09;35.90;;;25.52;;
44452;SDS011;30155;52.164;21.236;2022-11-06T21:03:01;37.70;;;25.02;;
44452;SDS011;30155;52.164;21.236;2022-11-06T21:07:52;39.67;;;27.52;;
44452;SDS011;30155;52.164;21.236;2022-11-06T21:12:43;39.48;;;23.73;;
44452;SDS011;30155;52.164;21.236;2022-11-06T21:17:34;37.83;;;25.90;;
44452;SDS011;30155;52.164;21.236;2022-11-06T21:22:31;38.38;;;25.23;;
44452;SDS011;30155;52.164;21.236;2022-11-06T21:27:23;36.63;;;24.02;;
44452;SDS011;30155;52.164;21.236;2022-11-06T21:32:14;36.23;;;23.02;;
44452;SDS011;30155;52.164;21.236;2022-11-06T21:37:06;35.03;;;22.42;;
44452;SDS011;30155;52.164;21.236;2022-11-06T21:41:57;40.15;;;27.80;;
44452;SDS011;30155;52.164;21.236;2022-11-06T21:46:48;38.65;;;24.63;;
44452;SDS011;30155;52.164;21.236;2022-11-06T21:51:40;33.10;;;23.80;;
44452;SDS011;30155;52.164;21.236;2022-11-06T21:56:31;33.00;;;21.27;;
44452;SDS011;30155;52.164;21.236;2022-11-06T22:01:24;32.15;;;22.07;;
44452;SDS011;30155;52.164;21.236;2022-11-06T22:06:17;30.00;;;18.95;;
44452;SDS011;30155;52.164;21.236;2022-11-06T22:11:16;31.50;;;22.25;;
44452;SDS011;30155;52.164;21.236;2022-11-06T22:16:07;29.92;;;22.05;;
44452;SDS011;30155;52.164;21.236;2022-11-06T22:21:07;33.02;;;22.80;;
44452;SDS011;30155;52.164;21.236;2022-11-06T22:26:07;29.05;;;22.10;;
44452;SDS011;30155;52.164;21.236;2022-11-06T22:31:02;28.23;;;21.42;;
44452;SDS011;30155;52.164;21.236;2022-11-06T22:36:01;33.23;;;23.73;;
44452;SDS011;30155;52.164;21.236;2022-11-06T22:40:59;37.17;;;24.10;;
44452;SDS011;30155;52.164;21.236;2022-11-06T22:45:57;35.13;;;23.18;;
44452;SDS011;30155;52.164;21.236;2022-11-06T22:51:01;36.77;;;24.25;;
44452;SDS011;30155;52.164;21.236;2022-11-06T22:55:56;29.20;;;20.20;;
44452;SDS011;30155;52.164;21.236;2022-11-06T23:00:49;41.77;;;27.45;;
44452;SDS011;30155;52.164;21.236;2022-11-06T23:05:41;31.55;;;24.23;;
44452;SDS011;30155;52.164;21.236;2022-11-06T23:10:33;33.23;;;24.92;;
44452;SDS011;30155;52.164;21.236;2022-11-06T23:15:28;35.55;;;23.40;;
44452;SDS011;30155;52.164;21.236;2022-11-06T23:20:20;32.85;;;23.50;;
44452;SDS011;30155;52.164;21.236;2022-11-06T23:25:14;38.40;;;25.32;;
44452;SDS011;30155;52.164;21.236;2022-11-06T23:30:07;35.98;;;23.85;;
44452;SDS011;30155;52.164;21.236;2022-11-06T23:35:00;30.88;;;23.83;;
44452;SDS011;30155;52.164;21.236;2022-11-06T23:39:51;32.23;;;23.27;;
44452;SDS011;30155;52.164;21.236;2022-11-06T23:44:43;39.08;;;24.00;;
44452;SDS011;30155;52.164;21.236;2022-11-06T23:49:55;32.38;;;23.18;;
44452;SDS011;30155;52.164;21.236;2022-11-06T23:54:46;34.27;;;24.35;;
44452;SDS011;30155;52.164;21.236;2022-11-06T23:59:37;33.02;;;24.05;;
